sensor_id;sensor_type;location;lat;lon;timestamp;pressure;altitude;pressure_sealevel;temperature;humidity
9423;BME280;65863;49.506;10.400;2023-08-24T00:00:12;98264.72;;;16.01;91.96
9423;BME280;65863;49.506;10.400;2023-08-24T00:02:57;98274.31;;;15.89;92.22
9423;BME280;65863;49.506;10.400;2023-08-24T00:05:41;98272.75;;;15.95;92.29
9423;BME280;65863;49.506;10.400;2023-08-24T00:08:26;98191.03;;;15.47;92.47
9423;BME280;65863;49.506;10.400;2023-08-24T00:11:10;98246.34;;;15.93;92.70
9423;BME280;65863;49.506;10.400;2023-08-24T00:13:58;98254.69;;;15.91;92.56
9423;BME280;65863;49.506;10.400;2023-08-24T00:16:43;98213.81;;;15.66;92.63
9423;BME280;65863;49.506;10.400;2023-08-24T00:19:27;98212.72;;;15.62;92.91
9423;BME280;65863;49.506;10.400;2023-08-24T00:22:11;98190.59;;;15.50;92.72
9423;BME280;65863;49.506;10.400;2023-08-24T00:24:55;98259.00;;;15.92;92.85
9423;BME280;65863;49.506;10.400;2023-08-24T00:27:39;98209.56;;;15.58;92.70
9423;BME280;65863;49.506;10.400;2023-08-24T00:30:24;98241.59;;;15.78;92.77
9423;BME280;65863;49.506;10.400;2023-08-24T00:33:08;98241.53;;;15.86;92.74
9423;BME280;65863;49.506;10.400;2023-08-24T00:35:53;98090.38;;;14.82;92.70
9423;BME280;65863;49.506;10.400;2023-08-24T00:38:39;98242.72;;;15.82;92.62
9423;BME280;65863;49.506;10.400;2023-08-24T00:41:23;98226.72;;;15.60;92.70
9423;BME280;65863;49.506;10.400;2023-08-24T00:44:10;98220.59;;;15.54;92.78
9423;BME280;65863;49.506;10.400;2023-08-24T00:46:54;98241.88;;;15.72;92.86
9423;BME280;65863;49.506;10.400;2023-08-24T00:49:38;98221.22;;;15.62;93.20
9423;BME280;65863;49.506;10.400;2023-08-24T00:52:24;98247.28;;;15.78;93.05
9423;BME280;65863;49.506;10.400;2023-08-24T00:55:09;98233.22;;;15.53;93.25
9423;BME280;65863;49.506;10.400;2023-08-24T00:57:53;98185.56;;;15.31;93.11
9423;BME280;65863;49.506;10.400;2023-08-24T01:00:37;98235.22;;;15.60;93.07
9423;BME280;65863;49.506;10.400;2023-08-24T01:03:22;98176.66;;;15.18;93.06
9423;BME280;65863;49.506;10.400;2023-08-24T01:06:07;98205.59;;;15.43;93.11
9423;BME280;65863;49.506;10.400;2023-08-24T01:08:51;98225.56;;;15.45;93.10
9423;BME280;65863;49.506;10.400;2023-08-24T01:11:40;98232.03;;;15.56;92.95
9423;BME280;65863;49.506;10.400;2023-08-24T01:14:49;98235.53;;;15.46;92.98
9423;BME280;65863;49.506;10.400;2023-08-24T01:17:35;98236.88;;;15.45;93.16
9423;BME280;65863;49.506;10.400;2023-08-24T01:20:20;98219.66;;;15.16;93.27
9423;BME280;65863;49.506;10.400;2023-08-24T01:26:18;98224.38;;;15.13;93.56
9423;BME280;65863;49.506;10.400;2023-08-24T01:29:04;98210.44;;;15.15;93.71
9423;BME280;65863;49.506;10.400;2023-08-24T01:31:48;98223.88;;;15.25;93.87
9423;BME280;65863;49.506;10.400;2023-08-24T01:34:36;98241.38;;;15.31;93.81
9423;BME280;65863;49.506;10.400;2023-08-24T01:37:20;98108.47;;;14.10;94.01
9423;BME280;65863;49.506;10.400;2023-08-24T01:40:07;98234.84;;;15.21;94.56
9423;BME280;65863;49.506;10.400;2023-08-24T01:43:05;98241.28;;;15.39;94.68
9423;BME280;65863;49.506;10.400;2023-08-24T01:45:51;98230.81;;;15.31;94.82
9423;BME280;65863;49.506;10.400;2023-08-24T01:48:37;98240.59;;;15.30;94.94
9423;BME280;65863;49.506;10.400;2023-08-24T01:51:23;98241.03;;;15.27;95.17
9423;BME280;65863;49.506;10.400;2023-08-24T01:54:07;98144.97;;;14.59;95.18
9423;BME280;65863;49.506;10.400;2023-08-24T01:56:52;98220.03;;;15.12;95.25
9423;BME280;65863;49.506;10.400;2023-08-24T01:59:36;98228.13;;;15.16;95.33
9423;BME280;65863;49.506;10.400;2023-08-24T02:02:21;98194.94;;;14.99;95.34
9423;BME280;65863;49.506;10.400;2023-08-24T02:05:05;98194.94;;;14.99;95.65
9423;BME280;65863;49.506;10.400;2023-08-24T02:07:49;98222.03;;;15.02;95.62
9423;BME280;65863;49.506;10.400;2023-08-24T02:10:33;98215.31;;;14.97;95.62
9423;BME280;65863;49.506;10.400;2023-08-24T02:13:17;97951.34;;;13.12;95.59
9423;BME280;65863;49.506;10.400;2023-08-24T02:18:46;98092.88;;;14.09;95.87
9423;BME280;65863;49.506;10.400;2023-08-24T02:21:30;98178.25;;;14.68;95.84
9423;BME280;65863;49.506;10.400;2023-08-24T02:24:16;98214.69;;;14.82;95.83
9423;BME280;65863;49.506;10.400;2023-08-24T02:27:00;98224.25;;;14.86;95.71
9423;BME280;65863;49.506;10.400;2023-08-24T02:29:45;98230.16;;;14.80;95.56
9423;BME280;65863;49.506;10.400;2023-08-24T02:32:32;98208.00;;;14.69;95.88
9423;BME280;65863;49.506;10.400;2023-08-24T02:35:16;98253.47;;;15.06;96.07
9423;BME280;65863;49.506;10.400;2023-08-24T02:38:02;98247.03;;;14.88;96.23
9423;BME280;65863;49.506;10.400;2023-08-24T02:40:45;98255.00;;;14.82;96.52
9423;BME280;65863;49.506;10.400;2023-08-24T02:43:30;98179.97;;;14.38;96.88
9423;BME280;65863;49.506;10.400;2023-08-24T02:46:14;98218.25;;;14.57;96.93
9423;BME280;65863;49.506;10.400;2023-08-24T02:48:58;98188.38;;;14.21;96.88
9423;BME280;65863;49.506;10.400;2023-08-24T02:51:42;98215.66;;;14.51;96.88
9423;BME280;65863;49.506;10.400;2023-08-24T02:54:26;98256.53;;;14.75;97.31
9423;BME280;65863;49.506;10.400;2023-08-24T02:57:11;98254.88;;;14.72;97.24
9423;BME280;65863;49.506;10.400;2023-08-24T02:59:54;98203.59;;;14.51;97.31
9423;BME280;65863;49.506;10.400;2023-08-24T03:02:40;98247.91;;;14.73;97.26
9423;BME280;65863;49.506;10.400;2023-08-24T03:05:25;98211.03;;;14.38;97.02
9423;BME280;65863;49.506;10.400;2023-08-24T03:08:10;98239.00;;;14.52;97.27
9423;BME280;65863;49.506;10.400;2023-08-24T03:10:54;98199.31;;;14.17;96.96
9423;BME280;65863;49.506;10.400;2023-08-24T03:13:38;98199.47;;;14.19;97.15
9423;BME280;65863;49.506;10.400;2023-08-24T03:16:22;98215.09;;;14.20;97.12
9423;BME280;65863;49.506;10.400;2023-08-24T03:19:06;98148.13;;;13.87;97.33
9423;BME280;65863;49.506;10.400;2023-08-24T03:21:52;98204.88;;;14.32;97.20
9423;BME280;65863;49.506;10.400;2023-08-24T03:24:37;98189.34;;;14.16;96.96
9423;BME280;65863;49.506;10.400;2023-08-24T03:27:21;98203.19;;;14.29;96.87
9423;BME280;65863;49.506;10.400;2023-08-24T03:30:06;98179.56;;;14.17;97.08
9423;BME280;65863;49.506;10.400;2023-08-24T03:32:50;98175.41;;;14.18;97.28
9423;BME280;65863;49.506;10.400;2023-08-24T03:35:35;98207.16;;;14.26;97.36
9423;BME280;65863;49.506;10.400;2023-08-24T03:38:19;98178.63;;;14.14;97.64
9423;BME280;65863;49.506;10.400;2023-08-24T03:41:04;98184.06;;;14.20;97.42
9423;BME280;65863;49.506;10.400;2023-08-24T03:43:49;98222.44;;;14.48;97.33
9423;BME280;65863;49.506;10.400;2023-08-24T03:46:33;98126.00;;;13.76;97.48
9423;BME280;65863;49.506;10.400;2023-08-24T03:49:18;98141.91;;;13.89;97.27
9423;BME280;65863;49.506;10.400;2023-08-24T03:52:03;98221.72;;;14.48;97.44
9423;BME280;65863;49.506;10.400;2023-08-24T03:54:47;98203.72;;;14.35;97.30
9423;BME280;65863;49.506;10.400;2023-08-24T03:57:32;98163.66;;;14.04;97.57
9423;BME280;65863;49.506;10.400;2023-08-24T04:00:16;98216.09;;;14.40;97.88
9423;BME280;65863;49.506;10.400;2023-08-24T04:03:00;98215.94;;;14.38;97.60
9423;BME280;65863;49.506;10.400;2023-08-24T04:05:46;98193.47;;;14.15;97.66
9423;BME280;65863;49.506;10.400;2023-08-24T04:08:30;98165.47;;;14.09;98.25
9423;BME280;65863;49.506;10.400;2023-08-24T04:11:13;98075.59;;;13.39;98.26
9423;BME280;65863;49.506;10.400;2023-08-24T04:13:57;98200.38;;;14.29;98.50
9423;BME280;65863;49.506;10.400;2023-08-24T04:16:41;98209.53;;;14.37;98.65
9423;BME280;65863;49.506;10.400;2023-08-24T04:19:25;98201.50;;;14.26;98.66
9423;BME280;65863;49.506;10.400;2023-08-24T04:22:09;98185.59;;;14.13;98.96
9423;BME280;65863;49.506;10.400;2023-08-24T04:24:53;98220.28;;;14.39;99.07
9423;BME280;65863;49.506;10.400;2023-08-24T04:27:37;98224.19;;;14.43;99.12
9423;BME280;65863;49.506;10.400;2023-08-24T04:30:21;98202.91;;;14.42;99.24
9423;BME280;65863;49.506;10.400;2023-08-24T04:33:05;98187.75;;;14.30;99.55
9423;BME280;65863;49.506;10.400;2023-08-24T04:35:50;98210.19;;;14.78;99.35
9423;BME280;65863;49.506;10.400;2023-08-24T04:38:34;98205.97;;;14.87;99.02
9423;BME280;65863;49.506;10.400;2023-08-24T04:41:18;98180.78;;;14.82;98.82
9423;BME280;65863;49.506;10.400;2023-08-24T04:44:02;98187.56;;;14.78;98.73
9423;BME280;65863;49.506;10.400;2023-08-24T04:46:46;98214.00;;;15.16;98.64
9423;BME280;65863;49.506;10.400;2023-08-24T04:49:30;98195.66;;;15.00;98.29
9423;BME280;65863;49.506;10.400;2023-08-24T04:52:21;98175.72;;;14.97;98.02
9423;BME280;65863;49.506;10.400;2023-08-24T04:55:05;98227.97;;;15.31;97.61
9423;BME280;65863;49.506;10.400;2023-08-24T04:57:49;98163.84;;;15.17;97.47
9423;BME280;65863;49.506;10.400;2023-08-24T05:00:35;98178.66;;;15.42;97.46
9423;BME280;65863;49.506;10.400;2023-08-24T05:03:19;98205.06;;;15.90;97.25
9423;BME280;65863;49.506;10.400;2023-08-24T05:06:05;98239.38;;;16.21;96.90
9423;BME280;65863;49.506;10.400;2023-08-24T05:08:49;98235.63;;;16.18;96.68
9423;BME280;65863;49.506;10.400;2023-08-24T05:11:32;98104.25;;;15.49;95.90
9423;BME280;65863;49.506;10.400;2023-08-24T05:14:16;98200.50;;;16.31;95.44
9423;BME280;65863;49.506;10.400;2023-08-24T05:17:00;98215.34;;;16.49;94.86
9423;BME280;65863;49.506;10.400;2023-08-24T05:19:44;98220.47;;;16.61;93.96
9423;BME280;65863;49.506;10.400;2023-08-24T05:22:28;98186.59;;;16.53;93.61
9423;BME280;65863;49.506;10.400;2023-08-24T05:25:13;98210.66;;;16.72;92.83
9423;BME280;65863;49.506;10.400;2023-08-24T05:27:57;98092.63;;;16.00;92.02
9423;BME280;65863;49.506;10.400;2023-08-24T05:30:41;98142.00;;;16.53;91.73
9423;BME280;65863;49.506;10.400;2023-08-24T05:33:25;98178.75;;;16.81;91.09
9423;BME280;65863;49.506;10.400;2023-08-24T05:36:10;98062.25;;;16.10;90.51
9423;BME280;65863;49.506;10.400;2023-08-24T05:38:54;98164.50;;;16.89;89.90
9423;BME280;65863;49.506;10.400;2023-08-24T05:41:40;98093.50;;;16.40;89.53
9423;BME280;65863;49.506;10.400;2023-08-24T05:44:24;98083.84;;;16.52;89.13
9423;BME280;65863;49.506;10.400;2023-08-24T05:47:08;98086.47;;;16.31;89.07
9423;BME280;65863;49.506;10.400;2023-08-24T05:49:52;98156.38;;;16.75;89.20
9423;BME280;65863;49.506;10.400;2023-08-24T05:52:35;98076.69;;;16.42;89.26
9423;BME280;65863;49.506;10.400;2023-08-24T05:55:20;98138.09;;;16.96;89.15
9423;BME280;65863;49.506;10.400;2023-08-24T05:58:04;98112.94;;;16.53;89.18
9423;BME280;65863;49.506;10.400;2023-08-24T06:00:48;98087.72;;;16.47;89.94
9423;BME280;65863;49.506;10.400;2023-08-24T06:03:38;97975.38;;;15.66;90.31
9423;BME280;65863;49.506;10.400;2023-08-24T06:06:22;98029.09;;;16.50;90.58
9423;BME280;65863;49.506;10.400;2023-08-24T06:09:06;98051.19;;;16.51;90.39
9423;BME280;65863;49.506;10.400;2023-08-24T06:11:51;98134.19;;;17.01;90.43
9423;BME280;65863;49.506;10.400;2023-08-24T06:14:35;98171.66;;;17.09;90.55
9423;BME280;65863;49.506;10.400;2023-08-24T06:17:20;98134.66;;;17.07;90.62
9423;BME280;65863;49.506;10.400;2023-08-24T06:20:04;98138.69;;;17.43;90.45
9423;BME280;65863;49.506;10.400;2023-08-24T06:22:48;98039.16;;;17.00;90.37
9423;BME280;65863;49.506;10.400;2023-08-24T06:25:35;98133.06;;;17.84;89.75
9423;BME280;65863;49.506;10.400;2023-08-24T06:28:19;98127.53;;;18.06;89.22
9423;BME280;65863;49.506;10.400;2023-08-24T06:31:03;98137.72;;;18.31;88.34
9423;BME280;65863;49.506;10.400;2023-08-24T06:33:47;98117.66;;;18.38;87.88
9423;BME280;65863;49.506;10.400;2023-08-24T06:36:31;98136.16;;;18.71;87.34
9423;BME280;65863;49.506;10.400;2023-08-24T06:39:15;98150.81;;;18.77;87.01
9423;BME280;65863;49.506;10.400;2023-08-24T06:41:59;98155.31;;;19.02;86.51
9423;BME280;65863;49.506;10.400;2023-08-24T06:44:43;98148.41;;;19.05;85.98
9423;BME280;65863;49.506;10.400;2023-08-24T06:47:27;98132.19;;;19.29;85.50
9423;BME280;65863;49.506;10.400;2023-08-24T06:50:11;98191.81;;;19.82;84.29
9423;BME280;65863;49.506;10.400;2023-08-24T06:52:55;98181.47;;;19.65;82.51
9423;BME280;65863;49.506;10.400;2023-08-24T06:55:39;98178.22;;;19.59;82.27
9423;BME280;65863;49.506;10.400;2023-08-24T06:58:23;98201.00;;;19.81;82.38
9423;BME280;65863;49.506;10.400;2023-08-24T07:01:07;98004.69;;;18.82;81.57
9423;BME280;65863;49.506;10.400;2023-08-24T07:03:51;98148.81;;;19.78;80.24
9423;BME280;65863;49.506;10.400;2023-08-24T07:06:35;98160.31;;;19.68;79.85
9423;BME280;65863;49.506;10.400;2023-08-24T07:09:19;98214.38;;;19.90;80.62
9423;BME280;65863;49.506;10.400;2023-08-24T07:12:03;98225.59;;;20.09;81.16
9423;BME280;65863;49.506;10.400;2023-08-24T07:14:50;98223.72;;;20.02;81.22
9423;BME280;65863;49.506;10.400;2023-08-24T07:17:34;98231.69;;;20.27;81.43
9423;BME280;65863;49.506;10.400;2023-08-24T07:20:18;98189.94;;;20.44;81.05
9423;BME280;65863;49.506;10.400;2023-08-24T07:23:04;98211.19;;;20.88;79.78
9423;BME280;65863;49.506;10.400;2023-08-24T07:25:48;98170.81;;;21.06;78.53
9423;BME280;65863;49.506;10.400;2023-08-24T07:28:32;98213.56;;;21.79;76.04
9423;BME280;65863;49.506;10.400;2023-08-24T07:31:16;98189.38;;;21.94;73.94
9423;BME280;65863;49.506;10.400;2023-08-24T07:34:00;98217.03;;;22.03;72.23
9423;BME280;65863;49.506;10.400;2023-08-24T07:36:44;98180.44;;;22.13;70.93
9423;BME280;65863;49.506;10.400;2023-08-24T07:39:30;98198.44;;;22.42;70.09
9423;BME280;65863;49.506;10.400;2023-08-24T07:42:14;98182.13;;;22.05;69.14
9423;BME280;65863;49.506;10.400;2023-08-24T07:44:58;98125.81;;;22.21;69.31
9423;BME280;65863;49.506;10.400;2023-08-24T07:47:42;98207.56;;;22.94;67.97
9423;BME280;65863;49.506;10.400;2023-08-24T07:50:27;98148.75;;;22.49;67.46
9423;BME280;65863;49.506;10.400;2023-08-24T07:53:11;98135.50;;;22.83;67.09
9423;BME280;65863;49.506;10.400;2023-08-24T07:55:55;98198.25;;;23.21;64.00
9423;BME280;65863;49.506;10.400;2023-08-24T07:58:42;98210.41;;;23.35;64.41
9423;BME280;65863;49.506;10.400;2023-08-24T08:01:26;98205.16;;;23.60;64.35
9423;BME280;65863;49.506;10.400;2023-08-24T08:04:10;98174.69;;;23.66;64.11
9423;BME280;65863;49.506;10.400;2023-08-24T08:06:54;98187.03;;;23.55;63.86
9423;BME280;65863;49.506;10.400;2023-08-24T08:09:39;98148.41;;;23.56;63.75
9423;BME280;65863;49.506;10.400;2023-08-24T08:12:24;98153.63;;;23.46;63.42
9423;BME280;65863;49.506;10.400;2023-08-24T08:15:08;98123.84;;;23.67;64.49
9423;BME280;65863;49.506;10.400;2023-08-24T08:17:52;98167.41;;;24.25;62.16
9423;BME280;65863;49.506;10.400;2023-08-24T08:20:39;98154.75;;;24.30;61.94
9423;BME280;65863;49.506;10.400;2023-08-24T08:23:23;98166.56;;;24.70;61.97
9423;BME280;65863;49.506;10.400;2023-08-24T08:26:10;98111.72;;;24.30;61.84
9423;BME280;65863;49.506;10.400;2023-08-24T08:28:54;98155.34;;;25.10;59.43
9423;BME280;65863;49.506;10.400;2023-08-24T08:31:40;98165.69;;;25.70;57.86
9423;BME280;65863;49.506;10.400;2023-08-24T08:34:25;98134.00;;;25.50;57.33
9423;BME280;65863;49.506;10.400;2023-08-24T08:37:09;98135.06;;;25.58;58.59
9423;BME280;65863;49.506;10.400;2023-08-24T08:39:53;98147.69;;;25.33;59.18
9423;BME280;65863;49.506;10.400;2023-08-24T08:42:37;98134.94;;;25.20;60.04
9423;BME280;65863;49.506;10.400;2023-08-24T08:45:24;98110.56;;;24.69;60.31
9423;BME280;65863;49.506;10.400;2023-08-24T08:48:10;98119.00;;;24.49;61.39
9423;BME280;65863;49.506;10.400;2023-08-24T08:50:55;98056.56;;;24.32;62.01
9423;BME280;65863;49.506;10.400;2023-08-24T08:53:40;98078.94;;;24.35;61.40
9423;BME280;65863;49.506;10.400;2023-08-24T08:56:24;98111.75;;;24.80;61.46
9423;BME280;65863;49.506;10.400;2023-08-24T08:59:08;98116.06;;;24.97;61.48
9423;BME280;65863;49.506;10.400;2023-08-24T09:01:58;98105.78;;;25.62;61.28
9423;BME280;65863;49.506;10.400;2023-08-24T09:04:45;98120.41;;;25.88;60.15
9423;BME280;65863;49.506;10.400;2023-08-24T09:07:29;98117.94;;;26.37;58.89
9423;BME280;65863;49.506;10.400;2023-08-24T09:10:13;98117.13;;;26.54;59.34
9423;BME280;65863;49.506;10.400;2023-08-24T09:12:58;98056.66;;;26.12;59.50
9423;BME280;65863;49.506;10.400;2023-08-24T09:15:42;98125.22;;;27.00;59.70
9423;BME280;65863;49.506;10.400;2023-08-24T09:18:37;98097.72;;;26.35;57.85
9423;BME280;65863;49.506;10.400;2023-08-24T09:21:23;98104.22;;;26.75;57.61
9423;BME280;65863;49.506;10.400;2023-08-24T09:24:08;98112.00;;;27.35;56.95
9423;BME280;65863;49.506;10.400;2023-08-24T09:26:52;98109.84;;;27.13;56.42
9423;BME280;65863;49.506;10.400;2023-08-24T09:29:36;98117.75;;;27.57;55.23
9423;BME280;65863;49.506;10.400;2023-08-24T09:32:23;98122.88;;;27.83;54.33
9423;BME280;65863;49.506;10.400;2023-08-24T09:35:09;98067.75;;;26.62;54.32
9423;BME280;65863;49.506;10.400;2023-08-24T09:37:53;98103.50;;;26.97;55.80
9423;BME280;65863;49.506;10.400;2023-08-24T09:40:37;98082.69;;;26.98;56.24
9423;BME280;65863;49.506;10.400;2023-08-24T09:43:22;98088.59;;;27.95;55.95
9423;BME280;65863;49.506;10.400;2023-08-24T09:46:06;98059.91;;;27.99;54.80
9423;BME280;65863;49.506;10.400;2023-08-24T09:48:54;98077.19;;;28.50;50.71
9423;BME280;65863;49.506;10.400;2023-08-24T09:51:41;97987.69;;;28.22;50.88
9423;BME280;65863;49.506;10.400;2023-08-24T09:54:26;98060.34;;;28.40;50.01
9423;BME280;65863;49.506;10.400;2023-08-24T09:57:25;98028.97;;;28.81;51.47
9423;BME280;65863;49.506;10.400;2023-08-24T10:00:10;98043.13;;;28.71;49.55
9423;BME280;65863;49.506;10.400;2023-08-24T10:02:55;97962.19;;;28.12;49.29
9423;BME280;65863;49.506;10.400;2023-08-24T10:05:39;98044.22;;;28.85;48.99
9423;BME280;65863;49.506;10.400;2023-08-24T10:08:29;98036.81;;;29.37;49.07
9423;BME280;65863;49.506;10.400;2023-08-24T10:11:17;98035.72;;;29.52;46.32
9423;BME280;65863;49.506;10.400;2023-08-24T10:16:51;98028.38;;;29.47;47.21
9423;BME280;65863;49.506;10.400;2023-08-24T10:19:36;98014.38;;;29.68;47.25
9423;BME280;65863;49.506;10.400;2023-08-24T10:22:21;98010.56;;;29.92;45.04
9423;BME280;65863;49.506;10.400;2023-08-24T10:25:07;97865.41;;;28.96;42.98
9423;BME280;65863;49.506;10.400;2023-08-24T10:27:52;97985.19;;;30.27;41.28
9423;BME280;65863;49.506;10.400;2023-08-24T10:30:38;97974.69;;;30.07;41.46
9423;BME280;65863;49.506;10.400;2023-08-24T10:33:23;97973.19;;;30.04;41.15
9423;BME280;65863;49.506;10.400;2023-08-24T10:36:07;97980.03;;;29.84;41.88
9423;BME280;65863;49.506;10.400;2023-08-24T10:38:55;97969.81;;;29.14;42.29
9423;BME280;65863;49.506;10.400;2023-08-24T10:41:47;97938.78;;;28.56;43.60
9423;BME280;65863;49.506;10.400;2023-08-24T10:44:35;97972.66;;;29.12;43.22
9423;BME280;65863;49.506;10.400;2023-08-24T10:47:21;97968.78;;;29.66;42.87
9423;BME280;65863;49.506;10.400;2023-08-24T10:50:09;97969.06;;;29.79;42.08
9423;BME280;65863;49.506;10.400;2023-08-24T10:52:54;97953.69;;;29.70;42.61
9423;BME280;65863;49.506;10.400;2023-08-24T10:55:38;97938.50;;;30.06;42.41
9423;BME280;65863;49.506;10.400;2023-08-24T10:58:22;97935.84;;;30.18;41.59
9423;BME280;65863;49.506;10.400;2023-08-24T11:01:07;97929.47;;;29.87;42.16
9423;BME280;65863;49.506;10.400;2023-08-24T11:03:55;97971.25;;;30.55;43.20
9423;BME280;65863;49.506;10.400;2023-08-24T11:06:52;97969.06;;;30.15;41.98
9423;BME280;65863;49.506;10.400;2023-08-24T11:09:46;97967.03;;;29.85;42.09
9423;BME280;65863;49.506;10.400;2023-08-24T11:15:48;97960.41;;;29.81;42.89
9423;BME280;65863;49.506;10.400;2023-08-24T11:18:39;97933.06;;;29.51;42.73
9423;BME280;65863;49.506;10.400;2023-08-24T11:21:24;97875.91;;;29.13;42.58
9423;BME280;65863;49.506;10.400;2023-08-24T11:24:12;97951.50;;;30.05;42.59
9423;BME280;65863;49.506;10.400;2023-08-24T11:26:57;97906.75;;;29.71;42.23
9423;BME280;65863;49.506;10.400;2023-08-24T11:29:44;97842.94;;;29.25;42.24
9423;BME280;65863;49.506;10.400;2023-08-24T11:32:28;97929.97;;;29.76;42.78
9423;BME280;65863;49.506;10.400;2023-08-24T11:35:12;97900.72;;;29.96;42.28
9423;BME280;65863;49.506;10.400;2023-08-24T11:37:56;97896.41;;;29.26;42.17
9423;BME280;65863;49.506;10.400;2023-08-24T11:40:40;97898.25;;;29.45;44.07
9423;BME280;65863;49.506;10.400;2023-08-24T11:43:27;97885.31;;;29.48;43.59
9423;BME280;65863;49.506;10.400;2023-08-24T11:46:12;97906.81;;;29.39;42.59
9423;BME280;65863;49.506;10.400;2023-08-24T11:48:57;97874.94;;;29.74;43.36
9423;BME280;65863;49.506;10.400;2023-08-24T11:51:41;97896.97;;;30.30;42.77
9423;BME280;65863;49.506;10.400;2023-08-24T11:54:25;97878.31;;;30.39;42.95
9423;BME280;65863;49.506;10.400;2023-08-24T11:57:10;97893.63;;;30.90;42.82
9423;BME280;65863;49.506;10.400;2023-08-24T11:59:54;97892.94;;;30.94;42.09
9423;BME280;65863;49.506;10.400;2023-08-24T12:02:42;97885.00;;;30.97;42.22
9423;BME280;65863;49.506;10.400;2023-08-24T12:05:27;97868.88;;;31.36;40.63
9423;BME280;65863;49.506;10.400;2023-08-24T12:08:12;97875.03;;;31.65;41.54
9423;BME280;65863;49.506;10.400;2023-08-24T12:10:56;97857.19;;;31.28;40.54
9423;BME280;65863;49.506;10.400;2023-08-24T12:13:49;97872.31;;;31.20;41.46
9423;BME280;65863;49.506;10.400;2023-08-24T12:16:33;97863.31;;;31.00;41.91
9423;BME280;65863;49.506;10.400;2023-08-24T12:19:21;97864.69;;;30.95;41.38
9423;BME280;65863;49.506;10.400;2023-08-24T12:22:05;97851.97;;;31.16;41.59
9423;BME280;65863;49.506;10.400;2023-08-24T12:24:49;97854.06;;;31.69;41.51
9423;BME280;65863;49.506;10.400;2023-08-24T12:27:33;97811.28;;;31.08;40.36
9423;BME280;65863;49.506;10.400;2023-08-24T12:30:18;97843.94;;;31.74;40.85
9423;BME280;65863;49.506;10.400;2023-08-24T12:33:03;97831.72;;;31.82;40.63
9423;BME280;65863;49.506;10.400;2023-08-24T12:35:47;97816.72;;;32.10;40.13
9423;BME280;65863;49.506;10.400;2023-08-24T12:38:31;97816.00;;;32.09;39.81
9423;BME280;65863;49.506;10.400;2023-08-24T12:41:15;97772.97;;;31.14;40.82
9423;BME280;65863;49.506;10.400;2023-08-24T12:43:59;97812.94;;;31.25;41.94
9423;BME280;65863;49.506;10.400;2023-08-24T12:46:48;97810.03;;;31.23;40.45
9423;BME280;65863;49.506;10.400;2023-08-24T12:49:32;97713.88;;;30.80;40.91
9423;BME280;65863;49.506;10.400;2023-08-24T12:52:16;97767.41;;;31.36;41.31
9423;BME280;65863;49.506;10.400;2023-08-24T12:55:01;97791.81;;;31.80;40.19
9423;BME280;65863;49.506;10.400;2023-08-24T12:57:45;97770.81;;;31.16;41.03
9423;BME280;65863;49.506;10.400;2023-08-24T13:00:29;97789.84;;;31.32;41.32
9423;BME280;65863;49.506;10.400;2023-08-24T13:03:13;97753.44;;;31.18;40.91
9423;BME280;65863;49.506;10.400;2023-08-24T13:05:57;97749.34;;;31.42;40.55
9423;BME280;65863;49.506;10.400;2023-08-24T13:08:41;97729.41;;;31.77;40.49
9423;BME280;65863;49.506;10.400;2023-08-24T13:11:25;97725.06;;;31.78;39.68
9423;BME280;65863;49.506;10.400;2023-08-24T13:14:09;97760.53;;;31.72;39.87
9423;BME280;65863;49.506;10.400;2023-08-24T13:16:54;97613.72;;;30.61;40.00
9423;BME280;65863;49.506;10.400;2023-08-24T13:19:37;97728.84;;;31.19;42.10
9423;BME280;65863;49.506;10.400;2023-08-24T13:22:22;97739.44;;;31.00;41.80
9423;BME280;65863;49.506;10.400;2023-08-24T13:25:07;97703.63;;;30.73;42.13
9423;BME280;65863;49.506;10.400;2023-08-24T13:27:51;97734.22;;;30.86;42.29
9423;BME280;65863;49.506;10.400;2023-08-24T13:30:35;97707.28;;;30.76;41.52
9423;BME280;65863;49.506;10.400;2023-08-24T13:33:19;97731.13;;;30.72;41.59
9423;BME280;65863;49.506;10.400;2023-08-24T13:36:03;97725.91;;;30.58;42.42
9423;BME280;65863;49.506;10.400;2023-08-24T13:38:47;97711.75;;;30.32;42.98
9423;BME280;65863;49.506;10.400;2023-08-24T13:41:33;97686.53;;;30.40;42.64
9423;BME280;65863;49.506;10.400;2023-08-24T13:44:17;97705.88;;;30.77;42.40
9423;BME280;65863;49.506;10.400;2023-08-24T13:47:02;97716.91;;;30.93;41.85
9423;BME280;65863;49.506;10.400;2023-08-24T13:49:45;97673.59;;;31.03;41.52
9423;BME280;65863;49.506;10.400;2023-08-24T13:52:30;97693.28;;;31.17;41.49
9423;BME280;65863;49.506;10.400;2023-08-24T13:55:14;97695.44;;;31.14;41.08
9423;BME280;65863;49.506;10.400;2023-08-24T13:57:58;97669.97;;;31.04;42.24
9423;BME280;65863;49.506;10.400;2023-08-24T14:00:42;97684.81;;;31.37;41.91
9423;BME280;65863;49.506;10.400;2023-08-24T14:03:26;97674.16;;;31.63;41.50
9423;BME280;65863;49.506;10.400;2023-08-24T14:06:11;97695.50;;;32.02;41.63
9423;BME280;65863;49.506;10.400;2023-08-24T14:08:56;97674.16;;;31.58;41.43
9423;BME280;65863;49.506;10.400;2023-08-24T14:11:40;97687.75;;;32.34;41.22
9423;BME280;65863;49.506;10.400;2023-08-24T14:14:25;97661.59;;;32.25;39.38
9423;BME280;65863;49.506;10.400;2023-08-24T14:17:09;97676.56;;;31.89;40.05
9423;BME280;65863;49.506;10.400;2023-08-24T14:19:53;97686.63;;;31.80;40.65
9423;BME280;65863;49.506;10.400;2023-08-24T14:22:37;97669.97;;;31.80;40.25
9423;BME280;65863;49.506;10.400;2023-08-24T14:25:21;97667.97;;;32.09;40.34
9423;BME280;65863;49.506;10.400;2023-08-24T14:28:05;97673.16;;;32.23;40.36
9423;BME280;65863;49.506;10.400;2023-08-24T14:30:52;97661.34;;;31.90;40.28
9423;BME280;65863;49.506;10.400;2023-08-24T14:33:36;97655.59;;;31.99;40.34
9423;BME280;65863;49.506;10.400;2023-08-24T14:36:20;97690.25;;;31.76;40.56
9423;BME280;65863;49.506;10.400;2023-08-24T14:39:05;97646.28;;;31.27;40.85
9423;BME280;65863;49.506;10.400;2023-08-24T14:41:49;97571.69;;;31.31;40.30
9423;BME280;65863;49.506;10.400;2023-08-24T14:44:33;97595.50;;;31.19;40.33